sensor_id;sensor_type;location;lat;lon;timestamp;pressure;altitude;pressure_sealevel;temperature;humidity
33185;BME280;19550;42.872;25.494;2023-02-23T00:01:10;96302.47;;;3.07;100.00
33185;BME280;19550;42.872;25.494;2023-02-23T00:03:37;96311.53;;;3.12;100.00
33185;BME280;19550;42.872;25.494;2023-02-23T00:06:05;96308.50;;;3.09;100.00
33185;BME280;19550;42.872;25.494;2023-02-23T00:08:34;96305.78;;;3.04;100.00
33185;BME280;19550;42.872;25.494;2023-02-23T00:11:02;96304.69;;;3.10;100.00
33185;BME280;19550;42.872;25.494;2023-02-23T00:13:31;96312.88;;;3.15;100.00
33185;BME280;19550;42.872;25.494;2023-02-23T00:16:03;96309.06;;;3.16;100.00
33185;BME280;19550;42.872;25.494;2023-02-23T00:18:30;96311.22;;;3.14;100.00
33185;BME280;19550;42.872;25.494;2023-02-23T00:21:05;96303.59;;;2.96;100.00
33185;BME280;19550;42.872;25.494;2023-02-23T00:23:34;96313.47;;;2.92;100.00
33185;BME280;19550;42.872;25.494;2023-02-23T00:26:03;96309.88;;;2.96;100.00
33185;BME280;19550;42.872;25.494;2023-02-23T00:28:30;96318.63;;;2.93;100.00
33185;BME280;19550;42.872;25.494;2023-02-23T00:31:00;96315.38;;;2.91;100.00
33185;BME280;19550;42.872;25.494;2023-02-23T00:33:28;96319.47;;;2.84;100.00
33185;BME280;19550;42.872;25.494;2023-02-23T00:35:59;96305.25;;;2.76;100.00
33185;BME280;19550;42.872;25.494;2023-02-23T00:38:28;96313.44;;;2.66;100.00
33185;BME280;19550;42.872;25.494;2023-02-23T00:41:03;96311.53;;;2.57;100.00
33185;BME280;19550;42.872;25.494;2023-02-23T00:43:32;96309.06;;;2.60;100.00
33185;BME280;19550;42.872;25.494;2023-02-23T00:45:59;96309.91;;;2.76;100.00
33185;BME280;19550;42.872;25.494;2023-02-23T00:48:30;96305.78;;;2.89;100.00
33185;BME280;19550;42.872;25.494;2023-02-23T00:50:58;96303.06;;;2.78;100.00
33185;BME280;19550;42.872;25.494;2023-02-23T00:53:25;96303.88;;;2.84;100.00
33185;BME280;19550;42.872;25.494;2023-02-23T00:55:52;96302.25;;;2.78;100.00
33185;BME280;19550;42.872;25.494;2023-02-23T00:58:21;96302.22;;;2.88;100.00
33185;BME280;19550;42.872;25.494;2023-02-23T01:00:48;96303.03;;;2.89;100.00
33185;BME280;19550;42.872;25.494;2023-02-23T01:03:14;96306.06;;;2.87;100.00
33185;BME280;19550;42.872;25.494;2023-02-23T01:05:41;96307.97;;;2.76;100.00
33185;BME280;19550;42.872;25.494;2023-02-23T01:08:09;96303.63;;;2.86;100.00
33185;BME280;19550;42.872;25.494;2023-02-23T01:10:38;96299.78;;;2.92;100.00
33185;BME280;19550;42.872;25.494;2023-02-23T01:13:07;96299.75;;;2.97;100.00
33185;BME280;19550;42.872;25.494;2023-02-23T01:15:40;96304.97;;;2.83;100.00
33185;BME280;19550;42.872;25.494;2023-02-23T01:18:08;96301.41;;;2.72;100.00
33185;BME280;19550;42.872;25.494;2023-02-23T01:20:35;96304.97;;;2.58;100.00
33185;BME280;19550;42.872;25.494;2023-02-23T01:23:03;96302.19;;;2.53;100.00
33185;BME280;19550;42.872;25.494;2023-02-23T01:25:32;96291.00;;;2.39;100.00
33185;BME280;19550;42.872;25.494;2023-02-23T01:27:59;96299.47;;;2.48;100.00
33185;BME280;19550;42.872;25.494;2023-02-23T01:30:26;96298.13;;;2.50;100.00
33185;BME280;19550;42.872;25.494;2023-02-23T01:32:54;96293.72;;;2.54;100.00
33185;BME280;19550;42.872;25.494;2023-02-23T01:35:21;96291.81;;;2.55;100.00
33185;BME280;19550;42.872;25.494;2023-02-23T01:37:48;96288.00;;;2.51;100.00
33185;BME280;19550;42.872;25.494;2023-02-23T01:40:17;96286.34;;;2.45;100.00
33185;BME280;19550;42.872;25.494;2023-02-23T01:42:54;96289.91;;;2.45;100.00
33185;BME280;19550;42.872;25.494;2023-02-23T01:45:30;96291.56;;;2.56;100.00
33185;BME280;19550;42.872;25.494;2023-02-23T01:48:03;96296.72;;;2.53;100.00
33185;BME280;19550;42.872;25.494;2023-02-23T01:50:37;96297.25;;;2.34;100.00
33185;BME280;19550;42.872;25.494;2023-02-23T01:53:08;96292.00;;;2.08;100.00
33185;BME280;19550;42.872;25.494;2023-02-23T01:55:36;96291.75;;;2.09;100.00
33185;BME280;19550;42.872;25.494;2023-02-23T01:58:07;96288.50;;;2.12;100.00
33185;BME280;19550;42.872;25.494;2023-02-23T02:00:41;96298.56;;;2.02;100.00
33185;BME280;19550;42.872;25.494;2023-02-23T02:03:13;96292.25;;;1.96;100.00
33185;BME280;19550;42.872;25.494;2023-02-23T02:05:42;96287.31;;;1.93;100.00
33185;BME280;19550;42.872;25.494;2023-02-23T02:08:11;96297.72;;;1.91;100.00
33185;BME280;19550;42.872;25.494;2023-02-23T02:10:38;96293.59;;;1.83;100.00
33185;BME280;19550;42.872;25.494;2023-02-23T02:13:17;96293.59;;;1.83;100.00
33185;BME280;19550;42.872;25.494;2023-02-23T02:16:04;96293.91;;;1.97;100.00
33185;BME280;19550;42.872;25.494;2023-02-23T02:18:44;96305.38;;;1.94;100.00
33185;BME280;19550;42.872;25.494;2023-02-23T02:21:35;96300.78;;;2.10;100.00
33185;BME280;19550;42.872;25.494;2023-02-23T02:24:30;96296.97;;;2.11;100.00
33185;BME280;19550;42.872;25.494;2023-02-23T02:27:16;96296.41;;;2.09;100.00
33185;BME280;19550;42.872;25.494;2023-02-23T02:30:03;96295.31;;;2.10;100.00
33185;BME280;19550;42.872;25.494;2023-02-23T02:38:50;96294.78;;;2.18;100.00
33185;BME280;19550;42.872;25.494;2023-02-23T02:41:24;96301.88;;;2.14;100.00
33185;BME280;19550;42.872;25.494;2023-02-23T02:44:04;96297.47;;;2.03;100.00
33185;BME280;19550;42.872;25.494;2023-02-23T02:46:37;96304.28;;;2.00;100.00
33185;BME280;19550;42.872;25.494;2023-02-23T02:49:07;96296.91;;;1.95;100.00
33185;BME280;19550;42.872;25.494;2023-02-23T02:51:42;96306.19;;;1.89;100.00
33185;BME280;19550;42.872;25.494;2023-02-23T02:54:18;96301.22;;;1.81;100.00
33185;BME280;19550;42.872;25.494;2023-02-23T02:56:47;96297.41;;;1.77;100.00
33185;BME280;19550;42.872;25.494;2023-02-23T02:59:18;96302.63;;;1.89;100.00
33185;BME280;19550;42.872;25.494;2023-02-23T03:02:04;96304.84;;;1.97;100.00
33185;BME280;19550;42.872;25.494;2023-02-23T03:04:49;96307.81;;;1.90;100.00
33185;BME280;19550;42.872;25.494;2023-02-23T03:07:36;96314.13;;;2.01;100.00
33185;BME280;19550;42.872;25.494;2023-02-23T03:10:31;96304.59;;;1.98;100.00
33185;BME280;19550;42.872;25.494;2023-02-23T03:13:31;96310.00;;;1.88;100.00
33185;BME280;19550;42.872;25.494;2023-02-23T03:16:24;96316.03;;;1.95;100.00
33185;BME280;19550;42.872;25.494;2023-02-23T03:19:17;96316.53;;;1.87;100.00
33185;BME280;19550;42.872;25.494;2023-02-23T03:22:09;96317.91;;;1.85;100.00
33185;BME280;19550;42.872;25.494;2023-02-23T03:25:01;96310.31;;;1.92;100.00
33185;BME280;19550;42.872;25.494;2023-02-23T03:27:52;96320.34;;;1.76;100.00
33185;BME280;19550;42.872;25.494;2023-02-23T03:30:45;96314.88;;;1.81;100.00
33185;BME280;19550;42.872;25.494;2023-02-23T03:33:38;96318.19;;;1.83;100.00
33185;BME280;19550;42.872;25.494;2023-02-23T03:36:26;96318.69;;;1.80;100.00
33185;BME280;19550;42.872;25.494;2023-02-23T03:39:18;96317.91;;;1.85;100.00
33185;BME280;19550;42.872;25.494;2023-02-23T03:42:10;96333.47;;;1.79;100.00
33185;BME280;19550;42.872;25.494;2023-02-23T03:44:58;96320.59;;;1.75;100.00
33185;BME280;19550;42.872;25.494;2023-02-23T03:47:45;96326.88;;;1.70;100.00
33185;BME280;19550;42.872;25.494;2023-02-23T03:50:34;96334.25;;;1.75;100.00
33185;BME280;19550;42.872;25.494;2023-02-23T03:53:24;96338.06;;;1.74;100.00
33185;BME280;19550;42.872;25.494;2023-02-23T03:56:12;96335.31;;;1.69;100.00
33185;BME280;19550;42.872;25.494;2023-02-23T03:59:00;96329.84;;;1.64;100.00
33185;BME280;19550;42.872;25.494;2023-02-23T04:01:49;96333.41;;;1.69;100.00
33185;BME280;19550;42.872;25.494;2023-02-23T04:04:35;96333.97;;;1.71;100.00
33185;BME280;19550;42.872;25.494;2023-02-23T04:07:19;96333.44;;;1.74;100.00
33185;BME280;19550;42.872;25.494;2023-02-23T04:10:05;96338.38;;;1.72;100.00
33185;BME280;19550;42.872;25.494;2023-02-23T04:12:55;96336.75;;;1.81;100.00
33185;BME280;19550;42.872;25.494;2023-02-23T04:15:43;96332.41;;;1.90;100.00
33185;BME280;19550;42.872;25.494;2023-02-23T04:18:13;96333.50;;;1.84;100.00
33185;BME280;19550;42.872;25.494;2023-02-23T04:20:41;96328.53;;;1.76;100.00
33185;BME280;19550;42.872;25.494;2023-02-23T04:23:08;96330.19;;;1.82;100.00
33185;BME280;19550;42.872;25.494;2023-02-23T04:25:35;96328.53;;;1.76;100.00
33185;BME280;19550;42.872;25.494;2023-02-23T04:28:02;96333.41;;;1.69;100.00
33185;BME280;19550;42.872;25.494;2023-02-23T04:30:29;96329.09;;;1.78;100.00
33185;BME280;19550;42.872;25.494;2023-02-23T04:32:56;96325.72;;;1.61;100.00
33185;BME280;19550;42.872;25.494;2023-02-23T04:35:25;96326.28;;;1.58;100.00
33185;BME280;19550;42.872;25.494;2023-02-23T04:37:54;96338.31;;;1.62;100.00
33185;BME280;19550;42.872;25.494;2023-02-23T04:40:21;96326.22;;;1.48;100.00
33185;BME280;19550;42.872;25.494;2023-02-23T04:42:48;96330.00;;;1.47;100.00
33185;BME280;19550;42.872;25.494;2023-02-23T04:45:15;96334.88;;;1.35;100.00
33185;BME280;19550;42.872;25.494;2023-02-23T04:47:42;96333.75;;;1.31;100.00
33185;BME280;19550;42.872;25.494;2023-02-23T04:50:10;96334.88;;;1.35;100.00
33185;BME280;19550;42.872;25.494;2023-02-23T04:52:38;96336.53;;;1.36;100.00
33185;BME280;19550;42.872;25.494;2023-02-23T04:55:05;96338.22;;;1.47;100.00
33185;BME280;19550;42.872;25.494;2023-02-23T04:57:32;96347.78;;;1.44;100.00
33185;BME280;19550;42.872;25.494;2023-02-23T04:59:59;96344.25;;;1.54;100.00
33185;BME280;19550;42.872;25.494;2023-02-23T05:02:26;96338.25;;;1.52;100.00
33185;BME280;19550;42.872;25.494;2023-02-23T05:04:53;96333.63;;;1.52;100.00
33185;BME280;19550;42.872;25.494;2023-02-23T05:07:20;96332.22;;;1.45;100.00
33185;BME280;19550;42.872;25.494;2023-02-23T05:09:48;96334.41;;;1.48;100.00
33185;BME280;19550;42.872;25.494;2023-02-23T05:12:15;96350.53;;;1.49;100.00
33185;BME280;19550;42.872;25.494;2023-02-23T05:14:42;96349.97;;;1.47;100.00
33185;BME280;19550;42.872;25.494;2023-02-23T05:17:09;96354.09;;;1.50;100.00
33185;BME280;19550;42.872;25.494;2023-02-23T05:19:35;96357.78;;;1.34;100.00
33185;BME280;19550;42.872;25.494;2023-02-23T05:22:02;96353.16;;;1.34;100.00
33185;BME280;19550;42.872;25.494;2023-02-23T05:24:29;96355.03;;;1.29;100.00
33185;BME280;19550;42.872;25.494;2023-02-23T05:26:57;96357.50;;;1.30;100.00
33185;BME280;19550;42.872;25.494;2023-02-23T05:29:24;96365.81;;;1.45;100.00
33185;BME280;19550;42.872;25.494;2023-02-23T05:31:51;96371.56;;;1.49;100.00
33185;BME280;19550;42.872;25.494;2023-02-23T05:34:18;96372.63;;;1.48;100.00
33185;BME280;19550;42.872;25.494;2023-02-23T05:36:45;96378.69;;;1.55;100.00
33185;BME280;19550;42.872;25.494;2023-02-23T05:39:12;96380.06;;;1.57;100.00
33185;BME280;19550;42.872;25.494;2023-02-23T05:41:38;96381.50;;;1.65;100.00
33185;BME280;19550;42.872;25.494;2023-02-23T05:44:07;96387.25;;;1.74;100.00
33185;BME280;19550;42.872;25.494;2023-02-23T05:46:34;96390.88;;;1.84;100.00
33185;BME280;19550;42.872;25.494;2023-02-23T05:49:01;96395.63;;;2.09;100.00
33185;BME280;19550;42.872;25.494;2023-02-23T05:51:29;96388.31;;;2.30;100.00
33185;BME280;19550;42.872;25.494;2023-02-23T05:53:57;96394.09;;;2.38;100.00
33185;BME280;19550;42.872;25.494;2023-02-23T05:56:24;96399.03;;;2.47;100.00
33185;BME280;19550;42.872;25.494;2023-02-23T05:58:53;96402.94;;;2.66;100.00
33185;BME280;19550;42.872;25.494;2023-02-23T06:01:22;96401.84;;;2.87;100.00
33185;BME280;19550;42.872;25.494;2023-02-23T06:03:50;96414.22;;;3.05;100.00
33185;BME280;19550;42.872;25.494;2023-02-23T06:06:17;96401.06;;;3.12;100.00
33185;BME280;19550;42.872;25.494;2023-02-23T06:08:44;96412.84;;;3.23;100.00
33185;BME280;19550;42.872;25.494;2023-02-23T06:11:12;96416.94;;;3.35;100.00
33185;BME280;19550;42.872;25.494;2023-02-23T06:13:39;96411.19;;;3.42;100.00
33185;BME280;19550;42.872;25.494;2023-02-23T06:16:06;96410.88;;;3.53;100.00
33185;BME280;19550;42.872;25.494;2023-02-23T06:18:35;96410.31;;;3.67;100.00
33185;BME280;19550;42.872;25.494;2023-02-23T06:21:02;96417.16;;;3.74;100.00
33185;BME280;19550;42.872;25.494;2023-02-23T06:23:31;96408.94;;;3.84;100.00
33185;BME280;19550;42.872;25.494;2023-02-23T06:25:58;96416.81;;;4.11;100.00
33185;BME280;19550;42.872;25.494;2023-02-23T06:28:25;96418.69;;;4.21;100.00
33185;BME280;19550;42.872;25.494;2023-02-23T06:30:53;96421.69;;;4.29;100.00
33185;BME280;19550;42.872;25.494;2023-02-23T06:33:20;96419.41;;;4.52;100.00
33185;BME280;19550;42.872;25.494;2023-02-23T06:35:49;96417.97;;;4.59;100.00
33185;BME280;19550;42.872;25.494;2023-02-23T06:38:16;96422.06;;;4.67;100.00
33185;BME280;19550;42.872;25.494;2023-02-23T06:40:42;96429.47;;;4.66;100.00
33185;BME280;19550;42.872;25.494;2023-02-23T06:43:09;96425.50;;;4.88;100.00
33185;BME280;19550;42.872;25.494;2023-02-23T06:45:36;96431.53;;;4.90;100.00
33185;BME280;19550;42.872;25.494;2023-02-23T06:48:04;96424.56;;;5.07;100.00
33185;BME280;19550;42.872;25.494;2023-02-23T06:50:31;96423.06;;;5.25;100.00
33185;BME280;19550;42.872;25.494;2023-02-23T06:52:59;96425.50;;;5.32;100.00
33185;BME280;19550;42.872;25.494;2023-02-23T06:55:26;96430.13;;;5.36;100.00
33185;BME280;19550;42.872;25.494;2023-02-23T06:57:52;96416.06;;;5.43;100.00
33185;BME280;19550;42.872;25.494;2023-02-23T07:00:20;96417.06;;;5.52;100.00
33185;BME280;19550;42.872;25.494;2023-02-23T07:02:47;96422.91;;;5.74;100.00
33185;BME280;19550;42.872;25.494;2023-02-23T07:05:14;96418.94;;;5.85;100.00
33185;BME280;19550;42.872;25.494;2023-02-23T07:07:41;96417.31;;;6.13;100.00
33185;BME280;19550;42.872;25.494;2023-02-23T07:10:10;96414.13;;;6.30;100.00
33185;BME280;19550;42.872;25.494;2023-02-23T07:12:37;96419.13;;;6.47;100.00
33185;BME280;19550;42.872;25.494;2023-02-23T07:15:05;96418.34;;;6.65;100.00
33185;BME280;19550;42.872;25.494;2023-02-23T07:17:32;96406.09;;;6.76;100.00
33185;BME280;19550;42.872;25.494;2023-02-23T07:19:59;96416.22;;;6.81;100.00
33185;BME280;19550;42.872;25.494;2023-02-23T07:22:26;96413.03;;;6.92;100.00
33185;BME280;19550;42.872;25.494;2023-02-23T07:24:54;96418.97;;;7.18;100.00
33185;BME280;19550;42.872;25.494;2023-02-23T07:27:23;96421.94;;;7.40;100.00
33185;BME280;19550;42.872;25.494;2023-02-23T07:29:49;96411.41;;;7.61;100.00
33185;BME280;19550;42.872;25.494;2023-02-23T07:32:16;96424.13;;;7.76;100.00
33185;BME280;19550;42.872;25.494;2023-02-23T07:34:43;96423.25;;;7.94;99.77
33185;BME280;19550;42.872;25.494;2023-02-23T07:37:12;96417.78;;;8.21;98.54
33185;BME280;19550;42.872;25.494;2023-02-23T07:39:39;96418.13;;;8.33;98.09
33185;BME280;19550;42.872;25.494;2023-02-23T07:42:05;96419.78;;;8.48;97.79
33185;BME280;19550;42.872;25.494;2023-02-23T07:44:34;96414.13;;;8.67;97.10
33185;BME280;19550;42.872;25.494;2023-02-23T07:47:02;96414.44;;;8.79;96.32
33185;BME280;19550;42.872;25.494;2023-02-23T07:49:28;96425.44;;;9.06;95.55
33185;BME280;19550;42.872;25.494;2023-02-23T07:51:57;96418.19;;;9.33;95.31
33185;BME280;19550;42.872;25.494;2023-02-23T07:54:24;96417.41;;;9.54;94.35
33185;BME280;19550;42.872;25.494;2023-02-23T07:56:51;96410.25;;;9.76;92.71
33185;BME280;19550;42.872;25.494;2023-02-23T07:59:18;96414.59;;;9.90;92.29
33185;BME280;19550;42.872;25.494;2023-02-23T08:01:46;96415.31;;;10.05;92.11
33185;BME280;19550;42.872;25.494;2023-02-23T08:04:13;96414.19;;;10.28;91.82
33185;BME280;19550;42.872;25.494;2023-02-23T08:06:40;96431.69;;;10.46;91.08
33185;BME280;19550;42.872;25.494;2023-02-23T08:09:10;96421.81;;;10.62;90.18
33185;BME280;19550;42.872;25.494;2023-02-23T08:11:42;96419.28;;;10.83;89.38
33185;BME280;19550;42.872;25.494;2023-02-23T08:14:10;96415.91;;;11.03;89.11
33185;BME280;19550;42.872;25.494;2023-02-23T08:16:37;96421.63;;;11.24;87.31
33185;BME280;19550;42.872;25.494;2023-02-23T08:19:05;96419.88;;;11.36;87.79
33185;BME280;19550;42.872;25.494;2023-02-23T08:21:32;96416.28;;;11.53;85.80
33185;BME280;19550;42.872;25.494;2023-02-23T08:23:59;96422.81;;;11.66;84.90
33185;BME280;19550;42.872;25.494;2023-02-23T08:26:26;96416.94;;;11.93;84.63
33185;BME280;19550;42.872;25.494;2023-02-23T08:28:53;96418.84;;;12.18;83.89
33185;BME280;19550;42.872;25.494;2023-02-23T08:31:20;96424.22;;;12.41;82.77
33185;BME280;19550;42.872;25.494;2023-02-23T08:33:48;96413.63;;;12.63;79.96
33185;BME280;19550;42.872;25.494;2023-02-23T08:36:16;96416.50;;;12.84;79.50
33185;BME280;19550;42.872;25.494;2023-02-23T08:38:45;96414.34;;;12.90;77.26
33185;BME280;19550;42.872;25.494;2023-02-23T08:41:30;96409.03;;;13.05;77.89
33185;BME280;19550;42.872;25.494;2023-02-23T08:47:22;96408.69;;;13.57;75.61
33185;BME280;19550;42.872;25.494;2023-02-23T08:49:49;96415.28;;;13.73;74.80
33185;BME280;19550;42.872;25.494;2023-02-23T08:52:20;96402.72;;;13.67;75.40
33185;BME280;19550;42.872;25.494;2023-02-23T08:54:47;96407.91;;;13.89;74.71
33185;BME280;19550;42.872;25.494;2023-02-23T08:57:14;96414.28;;;14.11;74.18
33185;BME280;19550;42.872;25.494;2023-02-23T08:59:42;96405.25;;;14.14;73.12
33185;BME280;19550;42.872;25.494;2023-02-23T09:02:11;96407.72;;;14.27;73.00
33185;BME280;19550;42.872;25.494;2023-02-23T09:04:38;96416.31;;;14.22;72.95
33185;BME280;19550;42.872;25.494;2023-02-23T09:07:08;96409.38;;;14.28;72.74
33185;BME280;19550;42.872;25.494;2023-02-23T09:09:37;96413.69;;;14.38;72.02
33185;BME280;19550;42.872;25.494;2023-02-23T09:12:04;96411.91;;;14.33;72.05
33185;BME280;19550;42.872;25.494;2023-02-23T09:14:31;96400.38;;;14.23;72.99
33185;BME280;19550;42.872;25.494;2023-02-23T09:16:58;96409.75;;;14.39;72.87
33185;BME280;19550;42.872;25.494;2023-02-23T09:19:25;96419.22;;;14.71;71.58
33185;BME280;19550;42.872;25.494;2023-02-23T09:21:52;96407.16;;;15.03;70.02
33185;BME280;19550;42.872;25.494;2023-02-23T09:24:19;96411.09;;;15.27;69.60
33185;BME280;19550;42.872;25.494;2023-02-23T09:26:47;96404.22;;;15.36;68.53
33185;BME280;19550;42.872;25.494;2023-02-23T09:29:14;96416.78;;;15.67;68.20
33185;BME280;19550;42.872;25.494;2023-02-23T09:31:41;96408.34;;;15.79;67.45
33185;BME280;19550;42.872;25.494;2023-02-23T09:34:08;96411.78;;;16.00;66.61
33185;BME280;19550;42.872;25.494;2023-02-23T09:36:37;96407.66;;;15.82;66.39
33185;BME280;19550;42.872;25.494;2023-02-23T09:39:04;96401.81;;;15.87;67.95
33185;BME280;19550;42.872;25.494;2023-02-23T09:41:49;96397.75;;;16.12;66.58
33185;BME280;19550;42.872;25.494;2023-02-23T09:44:40;96399.22;;;16.38;66.42
33185;BME280;19550;42.872;25.494;2023-02-23T09:47:20;96390.69;;;16.46;65.43
33185;BME280;19550;42.872;25.494;2023-02-23T09:49:52;96394.91;;;16.68;63.76
33185;BME280;19550;42.872;25.494;2023-02-23T09:52:24;96394.19;;;16.43;64.11
33185;BME280;19550;42.872;25.494;2023-02-23T09:54:52;96393.78;;;16.13;64.82
33185;BME280;19550;42.872;25.494;2023-02-23T09:57:24;96385.25;;;16.22;65.01
33185;BME280;19550;42.872;25.494;2023-02-23T09:59:55;96387.03;;;16.14;64.78
33185;BME280;19550;42.872;25.494;2023-02-23T10:02:23;96387.91;;;16.18;65.65
33185;BME280;19550;42.872;25.494;2023-02-23T10:04:58;96382.59;;;16.29;64.92
33185;BME280;19550;42.872;25.494;2023-02-23T10:07:33;96370.00;;;16.51;63.86
33185;BME280;19550;42.872;25.494;2023-02-23T10:10:19;96378.81;;;16.81;63.14
33185;BME280;19550;42.872;25.494;2023-02-23T10:12:57;96380.50;;;16.54;63.50
33185;BME280;19550;42.872;25.494;2023-02-23T10:15:32;96372.47;;;16.52;63.75
33185;BME280;19550;42.872;25.494;2023-02-23T10:18:10;96370.84;;;16.83;63.32
33185;BME280;19550;42.872;25.494;2023-02-23T10:20:45;96370.69;;;17.07;63.98
33185;BME280;19550;42.872;25.494;2023-02-23T10:23:20;96371.66;;;17.15;61.94
33185;BME280;19550;42.872;25.494;2023-02-23T10:25:48;96362.19;;;17.03;61.54
33185;BME280;19550;42.872;25.494;2023-02-23T10:28:18;96359.66;;;17.14;61.89
33185;BME280;19550;42.872;25.494;2023-02-23T10:30:48;96366.06;;;17.15;61.37
33185;BME280;19550;42.872;25.494;2023-02-23T10:33:20;96364.84;;;17.31;62.07
33185;BME280;19550;42.872;25.494;2023-02-23T10:35:50;96355.34;;;17.55;60.56
33185;BME280;19550;42.872;25.494;2023-02-23T10:38:20;96364.13;;;17.69;60.38
33185;BME280;19550;42.872;25.494;2023-02-23T10:40:50;96353.88;;;17.77;59.78
33185;BME280;19550;42.872;25.494;2023-02-23T10:43:21;96354.69;;;17.77;59.29
33185;BME280;19550;42.872;25.494;2023-02-23T10:45:52;96348.00;;;17.47;59.46
33185;BME280;19550;42.872;25.494;2023-02-23T10:48:20;96353.19;;;17.29;60.55
33185;BME280;19550;42.872;25.494;2023-02-23T10:50:49;96353.97;;;17.45;60.18
33185;BME280;19550;42.872;25.494;2023-02-23T10:53:22;96343.63;;;17.65;59.54
33185;BME280;19550;42.872;25.494;2023-02-23T10:56:00;96344.06;;;17.86;58.80
33185;BME280;19550;42.872;25.494;2023-02-23T10:58:29;96336.16;;;17.73;59.19
33185;BME280;19550;42.872;25.494;2023-02-23T11:00:58;96335.72;;;17.90;58.34
33185;BME280;19550;42.872;25.494;2023-02-23T11:03:29;96340.75;;;17.81;58.12
33185;BME280;19550;42.872;25.494;2023-02-23T11:05:57;96340.34;;;18.02;58.22
33185;BME280;19550;42.872;25.494;2023-02-23T11:08:26;96333.53;;;18.22;57.56
33185;BME280;19550;42.872;25.494;2023-02-23T11:10:59;96332.19;;;18.35;57.59
33185;BME280;19550;42.872;25.494;2023-02-23T11:13:32;96343.31;;;18.51;56.87
33185;BME280;19550;42.872;25.494;2023-02-23T11:16:01;96331.25;;;18.27;56.71
33185;BME280;19550;42.872;25.494;2023-02-23T11:18:29;96338.25;;;18.37;57.43
33185;BME280;19550;42.872;25.494;2023-02-23T11:20:56;96331.63;;;18.49;57.43
33185;BME280;19550;42.872;25.494;2023-02-23T11:23:25;96335.34;;;18.53;55.59
33185;BME280;19550;42.872;25.494;2023-02-23T11:25:56;96329.47;;;18.61;56.16
33185;BME280;19550;42.872;25.494;2023-02-23T11:28:29;96326.56;;;18.77;55.33
33185;BME280;19550;42.872;25.494;2023-02-23T11:31:01;96336.03;;;18.92;55.69
33185;BME280;19550;42.872;25.494;2023-02-23T11:33:31;96321.31;;;18.76;56.13
33185;BME280;19550;42.872;25.494;2023-02-23T11:36:13;96335.38;;;19.02;56.45
33185;BME280;19550;42.872;25.494;2023-02-23T11:38:41;96339.91;;;18.84;56.24
33185;BME280;19550;42.872;25.494;2023-02-23T11:41:18;96337.13;;;18.42;57.14
33185;BME280;19550;42.872;25.494;2023-02-23T11:43:48;96333.78;;;18.55;56.34
33185;BME280;19550;42.872;25.494;2023-02-23T11:46:17;96336.66;;;18.17;57.73
33185;BME280;19550;42.872;25.494;2023-02-23T11:48:49;96335.88;;;17.97;58.82
33185;BME280;19550;42.872;25.494;2023-02-23T11:51:28;96335.41;;;17.76;58.71
33185;BME280;19550;42.872;25.494;2023-02-23T11:53:56;96331.59;;;17.65;60.03
33185;BME280;19550;42.872;25.494;2023-02-23T11:56:26;96331.81;;;17.95;58.76
33185;BME280;19550;42.872;25.494;2023-02-23T11:58:58;96336.97;;;18.12;58.33
33185;BME280;19550;42.872;25.494;2023-02-23T12:01:36;96337.06;;;18.38;58.21
33185;BME280;19550;42.872;25.494;2023-02-23T12:04:04;96332.28;;;18.61;57.23
33185;BME280;19550;42.872;25.494;2023-02-23T12:06:34;96339.53;;;18.62;56.82
33185;BME280;19550;42.872;25.494;2023-02-23T12:09:08;96331.91;;;18.40;57.69
33185;BME280;19550;42.872;25.494;2023-02-23T12:11:41;96341.72;;;18.73;57.12
33185;BME280;19550;42.872;25.494;2023-02-23T12:14:20;96342.19;;;18.75;57.32
33185;BME280;19550;42.872;25.494;2023-02-23T12:16:54;96337.16;;;18.87;56.39
33185;BME280;19550;42.872;25.494;2023-02-23T12:19:24;96339.47;;;18.59;56.13
33185;BME280;19550;42.872;25.494;2023-02-23T12:21:59;96340.19;;;18.33;57.45
33185;BME280;19550;42.872;25.494;2023-02-23T12:24:37;96337.66;;;18.70;57.62
33185;BME280;19550;42.872;25.494;2023-02-23T12:27:10;96342.22;;;18.55;56.66
33185;BME280;19550;42.872;25.494;2023-02-23T12:29:48;96339.13;;;17.99;57.57
33185;BME280;19550;42.872;25.494;2023-02-23T12:32:24;96337.78;;;17.93;58.14
33185;BME280;19550;42.872;25.494;2023-02-23T12:34:55;96341.44;;;17.59;58.84
33185;BME280;19550;42.872;25.494;2023-02-23T12:37:33;96334.03;;;17.31;59.70
33185;BME280;19550;42.872;25.494;2023-02-23T12:40:25;96343.66;;;17.15;60.32
33185;BME280;19550;42.872;25.494;2023-02-23T12:42:59;96351.44;;;16.90;61.55
33185;BME280;19550;42.872;25.494;2023-02-23T12:45:34;96348.91;;;16.69;61.93
33185;BME280;19550;42.872;25.494;2023-02-23T12:48:10;96355.75;;;16.56;63.14
33185;BME280;19550;42.872;25.494;2023-02-23T12:50:41;96359.91;;;16.46;63.22
33185;BME280;19550;42.872;25.494;2023-02-23T12:53:18;96358.16;;;16.26;63.26
33185;BME280;19550;42.872;25.494;2023-02-23T12:55:54;96355.56;;;16.33;63.97
33185;BME280;19550;42.872;25.494;2023-02-23T12:58:28;96357.34;;;16.25;63.71
33185;BME280;19550;42.872;25.494;2023-02-23T13:01:03;96362.25;;;16.28;64.30
33185;BME280;19550;42.872;25.494;2023-02-23T13:04:03;96366.09;;;16.24;64.42
33185;BME280;19550;42.872;25.494;2023-02-23T13:06:39;96371.75;;;16.12;64.72
33185;BME280;19550;42.872;25.494;2023-02-23T13:09:20;96370.03;;;16.07;64.76
33185;BME280;19550;42.872;25.494;2023-02-23T13:12:08;96373.72;;;16.11;64.56
33185;BME280;19550;42.872;25.494;2023-02-23T13:14:42;96370.13;;;16.11;64.26
33185;BME280;19550;42.872;25.494;2023-02-23T13:17:24;96362.09;;;16.09;64.77
33185;BME280;19550;42.872;25.494;2023-02-23T13:19:55;96369.03;;;16.00;64.69
33185;BME280;19550;42.872;25.494;2023-02-23T13:22:28;96368.53;;;15.82;65.60
33185;BME280;19550;42.872;25.494;2023-02-23T13:25:00;96362.50;;;15.96;65.01